VE-0065 weather

Ensco IV Heliport
Zulia, Venezuela

Public forecast

Using degrees Celsius for public forecast. Weather courtesy of forecast.io.

METAR (pilot weather report)

Report is more than 6 hours old.

Closest report is Hacienda San José Airport, 26.7 nm (49.4 km) ESE. Retrieved 2009/08/18 12:00 UTC (10 years ago):

SVSS 181200Z 00000KT 5000 +HZ BKN030 XX/XX Q1014

TAF (pilot weather forecast)

Closest forecast is La Chinita International Airport, 60.4 nm (111.8 km) NNW. Retrieved 2019/04/19 06:13 UTC (2 hours ago):

TAF SVMC 190400Z 1906/2006 06005KT 9000 DZ FEW016 TX30/1912Z TN26/1906Z TEMPO 1906/1910 03005KT 9000 DZ BKN016 SCT100